Time,TemperatureF,DewpointF,PressureIn,WindDirection,WindDirectionDegrees,WindSpeedMPH,WindSpeedGustMPH,Humidity,HourlyPrecipIn,Conditions,Clouds,dailyrainin,SoftwareType,DateUTC
2013-01-03 00:02:00,38.5,36.4,30.05,NNE,24,0.0,0.0,92,0.00,,,0.08,Wunderground v.1.15,2013-01-03 05:02:00,
2013-01-03 00:03:00,38.5,36.4,30.05,NNE,24,0.0,0.0,92,0.00,,,0.00,Wunderground v.1.15,2013-01-03 05:03:00,
2013-01-03 00:06:00,38.4,36.3,30.05,NNE,24,0.0,0.0,92,0.00,,,0.00,Wunderground v.1.15,2013-01-03 05:06:00,
2013-01-03 00:09:00,38.4,36.3,30.05,NNE,24,0.0,0.0,92,0.00,,,0.00,Wunderground v.1.15,2013-01-03 05:09:00,
2013-01-03 00:15:00,38.4,36.6,30.05,NNE,24,0.0,1.0,93,0.00,,,0.00,Wunderground v.1.15,2013-01-03 05:15:00,
2013-01-03 00:20:00,38.4,36.6,30.04,NNE,24,0.0,0.0,93,0.00,,,0.00,Wunderground v.1.15,2013-01-03 05:20:00,
2013-01-03 00:26:00,38.4,36.6,30.04,NNE,24,0.0,0.0,93,0.00,,,0.00,Wunderground v.1.15,2013-01-03 05:26:00,
2013-01-03 00:31:00,38.3,36.5,30.04,NNE,24,0.0,0.0,93,0.00,,,0.00,Wunderground v.1.15,2013-01-03 05:31:00,
2013-01-03 00:37:00,38.2,36.4,30.04,NNE,24,0.0,0.0,93,0.00,,,0.00,Wunderground v.1.15,2013-01-03 05:37:00,
2013-01-03 00:43:00,38.1,36.3,30.04,NNE,24,0.0,0.0,93,0.00,,,0.00,Wunderground v.1.15,2013-01-03 05:43:00,
2013-01-03 00:48:00,38.1,36.3,30.03,NNE,24,0.0,0.0,93,0.00,,,0.00,Wunderground v.1.15,2013-01-03 05:48:00,
2013-01-03 00:54:00,38.1,36.5,30.03,NNE,24,0.0,0.0,94,0.00,,,0.00,Wunderground v.1.15,2013-01-03 05:54:00,
2013-01-03 00:59:00,38.1,36.5,30.03,NNE,24,0.0,0.0,94,0.00,,,0.00,Wunderground v.1.15,2013-01-03 05:59:00,
2013-01-03 01:04:00,38.1,36.5,30.05,NNE,24,0.0,0.0,94,0.00,,,0.00,Wunderground v.1.15,2013-01-03 06:04:00,
2013-01-03 01:09:00,38.0,36.4,30.05,NNE,24,0.0,0.0,94,0.00,,,0.00,Wunderground v.1.15,2013-01-03 06:09:00,
2013-01-03 01:15:00,38.0,36.4,30.05,NNE,24,0.0,0.0,94,0.00,,,0.00,Wunderground v.1.15,2013-01-03 06:15:00,
2013-01-03 01:21:00,38.0,36.4,30.05,NNE,24,0.0,0.0,94,0.00,,,0.00,Wunderground v.1.15,2013-01-03 06:21:00,
2013-01-03 01:27:00,37.9,36.6,30.05,NNE,24,0.0,0.0,95,0.00,,,0.00,Wunderground v.1.15,2013-01-03 06:27:00,
2013-01-03 01:33:00,38.0,36.7,30.06,NNE,24,0.0,0.0,95,0.00,,,0.00,Wunderground v.1.15,2013-01-03 06:33:00,
2013-01-03 01:38:00,38.0,36.7,30.06,NNE,24,0.0,0.0,95,0.00,,,0.00,Wunderground v.1.15,2013-01-03 06:38:00,
2013-01-03 01:44:00,38.1,36.8,30.06,NNE,24,0.0,0.0,95,0.00,,,0.00,Wunderground v.1.15,2013-01-03 06:44:00,
2013-01-03 01:49:00,38.2,37.2,30.06,NNE,24,0.0,0.0,96,0.00,,,0.00,Wunderground v.1.15,2013-01-03 06:49:00,
2013-01-03 01:55:00,38.2,37.2,30.06,NNE,24,0.0,0.0,96,0.00,,,0.00,Wunderground v.1.15,2013-01-03 06:55:00,
2013-01-03 02:01:00,38.2,37.2,30.06,NNE,24,0.0,0.0,96,0.00,,,0.00,Wunderground v.1.15,2013-01-03 07:01:00,
2013-01-03 02:07:00,38.3,37.0,30.06,NNE,24,0.0,0.0,95,0.00,,,0.00,Wunderground v.1.15,2013-01-03 07:07:00,
2013-01-03 02:13:00,38.3,37.3,30.06,NNE,24,0.0,0.0,96,0.00,,,0.00,Wunderground v.1.15,2013-01-03 07:13:00,
2013-01-03 02:18:00,38.3,37.3,30.06,NNE,24,0.0,0.0,96,0.00,,,0.00,Wunderground v.1.15,2013-01-03 07:18:00,
2013-01-03 02:24:00,38.3,37.3,30.06,NNE,24,0.0,0.0,96,0.00,,,0.00,Wunderground v.1.15,2013-01-03 07:24:00,
2013-01-03 02:29:00,38.3,37.3,30.06,NNE,24,0.0,0.0,96,0.00,,,0.00,Wunderground v.1.15,2013-01-03 07:29:00,
2013-01-03 02:35:00,38.3,37.3,30.05,NNE,24,0.0,0.0,96,0.00,,,0.00,Wunderground v.1.15,2013-01-03 07:35:00,
2013-01-03 02:41:00,38.4,37.4,30.05,NNE,24,0.0,0.0,96,0.00,,,0.00,Wunderground v.1.15,2013-01-03 07:41:00,
2013-01-03 02:47:00,38.4,37.4,30.06,NNE,24,0.0,0.0,96,0.00,,,0.00,Wunderground v.1.15,2013-01-03 07:47:00,
2013-01-03 02:52:00,38.4,37.4,30.06,NNE,24,0.0,0.0,96,0.00,,,0.00,Wunderground v.1.15,2013-01-03 07:52:00,
2013-01-03 02:58:00,38.5,37.5,30.06,NNE,24,0.0,0.0,96,0.00,,,0.00,Wunderground v.1.15,2013-01-03 07:58:00,
2013-01-03 03:03:00,38.5,37.5,30.06,NNE,24,0.0,0.0,96,0.00,,,0.00,Wunderground v.1.15,2013-01-03 08:03:00,
2013-01-03 03:09:00,38.5,37.5,30.06,NNE,24,0.0,0.0,96,0.00,,,0.00,Wunderground v.1.15,2013-01-03 08:09:00,
2013-01-03 03:14:00,38.4,37.4,30.06,NNE,24,0.0,1.0,96,0.00,,,0.00,Wunderground v.1.15,2013-01-03 08:14:00,
2013-01-03 03:19:00,38.8,37.8,30.04,SE,143,1.0,3.0,96,0.00,,,0.00,Wunderground v.1.15,2013-01-03 08:19:00,
2013-01-03 03:24:00,39.2,38.4,30.04,NE,48,2.0,4.0,97,0.00,,,0.00,Wunderground v.1.15,2013-01-03 08:24:00,
2013-01-03 03:29:00,39.2,38.4,30.04,NE,42,2.0,4.0,97,0.00,,,0.00,Wunderground v.1.15,2013-01-03 08:29:00,
2013-01-03 03:34:00,39.3,38.5,30.03,NW,313,2.0,3.0,97,0.00,,,0.00,Wunderground v.1.15,2013-01-03 08:34:00,
2013-01-03 03:39:00,39.4,38.6,30.03,NNW,327,1.0,5.0,97,0.00,,,0.00,Wunderground v.1.15,2013-01-03 08:39:00,
2013-01-03 03:44:00,39.4,38.6,30.03,WNW,295,1.0,2.0,97,0.00,,,0.00,Wunderground v.1.15,2013-01-03 08:44:00,
2013-01-03 03:50:00,39.5,38.7,30.04,NW,325,1.0,1.0,97,0.00,,,0.00,Wunderground v.1.15,2013-01-03 08:50:00,
2013-01-03 03:56:00,39.4,38.6,30.04,WNW,296,1.0,2.0,97,0.00,,,0.00,Wunderground v.1.15,2013-01-03 08:56:00,
2013-01-03 04:02:00,39.4,38.6,30.05,WNW,295,0.0,0.0,97,0.00,,,0.00,Wunderground v.1.15,2013-01-03 09:02:00,
2013-01-03 04:08:00,39.4,38.6,30.05,WNW,296,0.0,0.0,97,0.00,,,0.00,Wunderground v.1.15,2013-01-03 09:08:00,
2013-01-03 04:14:00,39.4,38.6,30.05,WNW,295,0.0,0.0,97,0.00,,,0.00,Wunderground v.1.15,2013-01-03 09:14:00,
2013-01-03 04:19:00,39.4,38.6,30.04,WNW,295,0.0,0.0,97,0.00,,,0.00,Wunderground v.1.15,2013-01-03 09:19:00,
2013-01-03 04:25:00,39.4,38.6,30.04,WNW,296,0.0,0.0,97,0.00,,,0.00,Wunderground v.1.15,2013-01-03 09:25:00,
2013-01-03 04:31:00,39.4,38.6,30.04,WNW,296,0.0,0.0,97,0.00,,,0.00,Wunderground v.1.15,2013-01-03 09:31:00,
2013-01-03 04:36:00,39.4,38.6,30.04,WNW,295,0.0,0.0,97,0.00,,,0.00,Wunderground v.1.15,2013-01-03 09:36:00,
2013-01-03 04:42:00,39.5,38.7,30.04,WNW,296,0.0,0.0,97,0.00,,,0.00,Wunderground v.1.15,2013-01-03 09:42:00,
2013-01-03 04:48:00,39.5,38.7,30.05,WNW,296,0.0,0.0,97,0.00,,,0.00,Wunderground v.1.15,2013-01-03 09:48:00,
2013-01-03 04:54:00,39.5,38.7,30.05,WNW,295,0.0,0.0,97,0.00,,,0.00,Wunderground v.1.15,2013-01-03 09:54:00,
2013-01-03 04:59:00,39.5,38.7,30.05,WNW,295,0.0,0.0,97,0.00,,,0.00,Wunderground v.1.15,2013-01-03 09:59:00,
2013-01-03 05:05:00,39.4,38.6,30.04,WNW,295,0.0,0.0,97,0.00,,,0.00,Wunderground v.1.15,2013-01-03 10:05:00,
2013-01-03 05:11:00,39.3,38.5,30.04,WNW,296,0.0,0.0,97,0.00,,,0.00,Wunderground v.1.15,2013-01-03 10:11:00,
2013-01-03 05:16:00,39.3,38.5,30.04,WNW,296,0.0,0.0,97,0.00,,,0.00,Wunderground v.1.15,2013-01-03 10:16:00,
2013-01-03 05:22:00,39.1,38.3,30.05,North,360,0.0,0.0,97,0.00,,,0.00,Wunderground v.1.15,2013-01-03 10:22:00,
2013-01-03 05:27:00,39.1,38.3,30.05,North,360,0.0,0.0,97,0.00,,,0.00,Wunderground v.1.15,2013-01-03 10:27:00,
2013-01-03 05:35:00,39.2,38.4,30.05,North,360,0.0,0.0,97,0.00,,,0.00,Wunderground v.1.15,2013-01-03 10:35:00,
2013-01-03 05:40:00,39.2,38.4,30.05,North,360,0.0,0.0,97,0.00,,,0.00,Wunderground v.1.15,2013-01-03 10:40:00,
2013-01-03 05:46:00,39.2,38.4,30.05,North,360,0.0,0.0,97,0.00,,,0.00,Wunderground v.1.15,2013-01-03 10:46:00,
2013-01-03 05:51:00,39.2,38.4,30.05,North,360,0.0,1.0,97,0.00,,,0.00,Wunderground v.1.15,2013-01-03 10:51:00,
2013-01-03 05:57:00,39.1,38.3,30.05,North,360,0.0,1.0,97,0.00,,,0.00,Wunderground v.1.15,2013-01-03 10:57:00,
2013-01-03 06:02:00,39.1,38.3,30.05,North,360,0.0,0.0,97,0.00,,,0.00,Wunderground v.1.15,2013-01-03 11:02:00,
2013-01-03 06:08:00,39.0,38.2,30.05,North,360,0.0,0.0,97,0.00,,,0.00,Wunderground v.1.15,2013-01-03 11:08:00,
2013-01-03 06:14:00,38.9,38.1,30.05,North,360,0.0,0.0,97,0.00,,,0.00,Wunderground v.1.15,2013-01-03 11:14:00,
2013-01-03 06:19:00,38.8,38.0,30.05,North,360,0.0,0.0,97,0.00,,,0.00,Wunderground v.1.15,2013-01-03 11:19:00,
2013-01-03 06:25:00,38.9,38.1,30.05,North,360,0.0,0.0,97,0.00,,,0.00,Wunderground v.1.15,2013-01-03 11:25:00,
2013-01-03 06:30:00,38.9,38.1,30.05,North,360,0.0,0.0,97,0.00,,,0.00,Wunderground v.1.15,2013-01-03 11:30:00,
2013-01-03 06:35:00,38.9,38.1,30.06,North,360,0.0,0.0,97,0.00,,,0.00,Wunderground v.1.15,2013-01-03 11:35:00,
2013-01-03 06:41:00,39.0,38.2,30.06,North,360,0.0,0.0,97,0.00,,,0.00,Wunderground v.1.15,2013-01-03 11:41:00,
2013-01-03 06:47:00,39.0,38.2,30.07,North,360,0.0,0.0,97,0.00,,,0.00,Wunderground v.1.15,2013-01-03 11:47:00,
2013-01-03 06:52:00,39.1,38.3,30.07,North,360,0.0,0.0,97,0.00,,,0.00,Wunderground v.1.15,2013-01-03 11:52:00,
2013-01-03 06:57:00,39.1,38.3,30.07,North,360,0.0,0.0,97,0.00,,,0.00,Wunderground v.1.15,2013-01-03 11:57:00,
2013-01-03 07:04:00,39.1,38.3,30.07,North,360,0.0,0.0,97,0.00,,,0.00,Wunderground v.1.15,2013-01-03 12:04:00,
2013-01-03 07:09:00,39.2,38.4,30.07,North,360,0.0,0.0,97,0.00,,,0.00,Wunderground v.1.15,2013-01-03 12:09:00,
2013-01-03 07:15:00,39.2,38.4,30.07,North,360,0.0,0.0,97,0.00,,,0.00,Wunderground v.1.15,2013-01-03 12:15:00,
2013-01-03 07:20:00,39.3,38.5,30.07,North,360,0.0,0.0,97,0.00,,,0.00,Wunderground v.1.15,2013-01-03 12:20:00,
2013-01-03 07:26:00,39.2,38.4,30.07,North,360,0.0,0.0,97,0.00,,,0.00,Wunderground v.1.15,2013-01-03 12:26:00,
2013-01-03 07:31:00,39.3,38.5,30.07,North,360,0.0,0.0,97,0.00,,,0.00,Wunderground v.1.15,2013-01-03 12:31:00,
2013-01-03 07:36:00,39.3,38.5,30.07,North,360,0.0,0.0,97,0.00,,,0.00,Wunderground v.1.15,2013-01-03 12:36:00,
2013-01-03 07:42:00,39.3,38.5,30.07,North,360,0.0,0.0,97,0.00,,,0.00,Wunderground v.1.15,2013-01-03 12:42:00,
2013-01-03 07:47:00,39.3,38.5,30.08,North,360,0.0,0.0,97,0.00,,,0.00,Wunderground v.1.15,2013-01-03 12:47:00,
2013-01-03 07:52:00,39.4,38.6,30.08,North,360,0.0,0.0,97,0.00,,,0.00,Wunderground v.1.15,2013-01-03 12:52:00,
2013-01-03 07:57:00,39.3,38.5,30.08,NW,315,0.0,1.0,97,0.00,,,0.00,Wunderground v.1.15,2013-01-03 12:57:00,
2013-01-03 08:02:00,38.9,38.1,30.09,WNW,296,0.0,0.0,97,0.00,,,0.00,Wunderground v.1.15,2013-01-03 13:02:00,
2013-01-03 08:07:00,38.3,37.5,30.09,WNW,297,0.0,1.0,97,0.00,,,0.00,Wunderground v.1.15,2013-01-03 13:07:00,
2013-01-03 08:13:00,37.7,36.9,30.09,WNW,296,0.0,1.0,97,0.00,,,0.00,Wunderground v.1.15,2013-01-03 13:13:00,
2013-01-03 08:19:00,37.3,36.5,30.10,SSW,206,0.0,2.0,97,0.00,,,0.00,Wunderground v.1.15,2013-01-03 13:19:00,
2013-01-03 08:24:00,37.1,36.3,30.10,SSW,206,0.0,2.0,97,0.00,,,0.00,Wunderground v.1.15,2013-01-03 13:24:00,
2013-01-03 08:30:00,36.9,35.9,30.10,SSW,206,0.0,0.0,96,0.00,,,0.00,Wunderground v.1.15,2013-01-03 13:30:00,
2013-01-03 08:36:00,36.8,36.0,30.11,SSW,206,0.0,0.0,97,0.00,,,0.00,Wunderground v.1.15,2013-01-03 13:36:00,
2013-01-03 08:41:00,36.7,35.9,30.11,SSW,206,0.0,0.0,97,0.00,,,0.00,Wunderground v.1.15,2013-01-03 13:41:00,
2013-01-03 08:47:00,36.7,35.9,30.10,SSW,206,0.0,0.0,97,0.00,,,0.00,Wunderground v.1.15,2013-01-03 13:47:00,
2013-01-03 08:53:00,36.7,35.9,30.10,SSW,206,0.0,0.0,97,0.00,,,0.00,Wunderground v.1.15,2013-01-03 13:53:00,
2013-01-03 08:58:00,36.7,35.9,30.10,SSW,206,0.0,0.0,97,0.00,,,0.00,Wunderground v.1.15,2013-01-03 13:58:00,
2013-01-03 09:03:00,36.7,35.9,30.10,SSW,206,0.0,0.0,97,0.00,,,0.00,Wunderground v.1.15,2013-01-03 14:03:00,
2013-01-03 09:08:00,36.7,35.9,30.10,SSW,206,0.0,0.0,97,0.00,,,0.00,Wunderground v.1.15,2013-01-03 14:08:00,
2013-01-03 09:14:00,36.7,35.9,30.10,SSW,206,0.0,1.0,97,0.00,,,0.00,Wunderground v.1.15,2013-01-03 14:14:00,
2013-01-03 09:19:00,36.7,35.9,30.11,SSW,206,0.0,1.0,97,0.00,,,0.00,Wunderground v.1.15,2013-01-03 14:19:00,
2013-01-03 09:24:00,36.6,35.8,30.11,SSW,207,0.0,1.0,97,0.00,,,0.00,Wunderground v.1.15,2013-01-03 14:24:00,
2013-01-03 09:30:00,36.7,35.9,30.11,SSW,207,0.0,0.0,97,0.00,,,0.00,Wunderground v.1.15,2013-01-03 14:30:00,
2013-01-03 09:35:00,36.7,35.9,30.11,SSW,207,0.0,1.0,97,0.00,,,0.00,Wunderground v.1.15,2013-01-03 14:35:00,
2013-01-03 09:41:00,36.6,35.8,30.11,SSW,206,0.0,0.0,97,0.00,,,0.00,Wunderground v.1.15,2013-01-03 14:41:00,
2013-01-03 09:47:00,36.6,35.8,30.13,SSW,207,0.0,1.0,97,0.00,,,0.00,Wunderground v.1.15,2013-01-03 14:47:00,
2013-01-03 09:52:00,36.5,35.7,30.13,West,280,0.0,1.0,97,0.00,,,0.00,Wunderground v.1.15,2013-01-03 14:52:00,
2013-01-03 09:58:00,36.4,35.6,30.13,West,280,0.0,1.0,97,0.00,,,0.00,Wunderground v.1.15,2013-01-03 14:58:00,
2013-01-03 10:03:00,36.3,35.5,30.13,West,281,0.0,0.0,97,0.00,,,0.00,Wunderground v.1.15,2013-01-03 15:03:00,
2013-01-03 10:09:00,36.1,35.3,30.13,West,280,0.0,1.0,97,0.00,,,0.00,Wunderground v.1.15,2013-01-03 15:09:00,
2013-01-03 10:14:00,36.1,35.3,30.13,West,280,0.0,0.0,97,0.00,,,0.00,Wunderground v.1.15,2013-01-03 15:14:00,
2013-01-03 10:20:00,36.0,35.2,30.13,West,280,0.0,0.0,97,0.00,,,0.00,Wunderground v.1.15,2013-01-03 15:20:00,
2013-01-03 10:25:00,36.0,35.2,30.13,West,281,0.0,1.0,97,0.00,,,0.00,Wunderground v.1.15,2013-01-03 15:25:00,
2013-01-03 10:30:00,36.1,35.3,30.13,West,281,0.0,0.0,97,0.00,,,0.00,Wunderground v.1.15,2013-01-03 15:30:00,
2013-01-03 10:36:00,36.2,35.2,30.13,West,281,0.0,0.0,96,0.00,,,0.00,Wunderground v.1.15,2013-01-03 15:36:00,
2013-01-03 10:42:00,36.2,35.2,30.13,West,281,0.0,0.0,96,0.00,,,0.00,Wunderground v.1.15,2013-01-03 15:42:00,
2013-01-03 10:47:00,36.1,35.1,30.13,West,281,0.0,1.0,96,0.00,,,0.00,Wunderground v.1.15,2013-01-03 15:47:00,
2013-01-03 10:53:00,36.3,35.3,30.13,West,280,0.0,0.0,96,0.00,,,0.00,Wunderground v.1.15,2013-01-03 15:53:00,
2013-01-03 10:58:00,36.4,35.4,30.13,West,281,0.0,0.0,96,0.00,,,0.00,Wunderground v.1.15,2013-01-03 15:58:00,
2013-01-03 11:03:00,36.5,35.5,30.13,West,281,0.0,0.0,96,0.00,,,0.00,Wunderground v.1.15,2013-01-03 16:03:00,
2013-01-03 11:09:00,36.5,35.2,30.13,West,281,0.0,1.0,95,0.00,,,0.00,Wunderground v.1.15,2013-01-03 16:09:00,
2013-01-03 11:14:00,36.6,35.3,30.13,West,281,0.0,2.0,95,0.00,,,0.00,Wunderground v.1.15,2013-01-03 16:14:00,
2013-01-03 11:19:00,36.8,35.5,30.13,West,280,0.0,2.0,95,0.00,,,0.00,Wunderground v.1.15,2013-01-03 16:19:00,
2013-01-03 11:24:00,37.0,35.4,30.13,West,281,0.0,0.0,94,0.00,,,0.00,Wunderground v.1.15,2013-01-03 16:24:00,
2013-01-03 11:30:00,37.2,35.6,30.13,West,280,0.0,0.0,94,0.00,,,0.00,Wunderground v.1.15,2013-01-03 16:30:00,
2013-01-03 11:36:00,37.3,35.5,30.12,West,281,0.0,1.0,93,0.00,,,0.00,Wunderground v.1.15,2013-01-03 16:36:00,
2013-01-03 11:41:00,37.4,35.3,30.12,West,280,0.0,0.0,92,0.00,,,0.00,Wunderground v.1.15,2013-01-03 16:41:00,
2013-01-03 11:47:00,37.5,35.4,30.12,West,280,0.0,0.0,92,0.00,,,0.00,Wunderground v.1.15,2013-01-03 16:47:00,
2013-01-03 11:52:00,37.7,35.3,30.12,West,280,0.0,0.0,91,0.00,,,0.00,Wunderground v.1.15,2013-01-03 16:52:00,
2013-01-03 11:58:00,37.7,35.0,30.12,West,280,0.0,1.0,90,0.00,,,0.00,Wunderground v.1.15,2013-01-03 16:58:00,
2013-01-03 12:04:00,37.8,35.1,30.11,West,280,1.0,1.0,90,0.00,,,0.00,Wunderground v.1.15,2013-01-03 17:04:00,
2013-01-03 12:09:00,37.9,34.9,30.11,NW,304,0.0,2.0,89,0.00,,,0.00,Wunderground v.1.15,2013-01-03 17:09:00,
2013-01-03 12:15:00,37.9,34.9,30.11,WNW,296,1.0,1.0,89,0.00,,,0.00,Wunderground v.1.15,2013-01-03 17:15:00,
2013-01-03 12:21:00,38.2,35.2,30.11,WNW,295,1.0,1.0,89,0.00,,,0.00,Wunderground v.1.15,2013-01-03 17:21:00,
2013-01-03 12:27:00,38.4,35.2,30.11,WNW,294,1.0,3.0,88,0.00,,,0.00,Wunderground v.1.15,2013-01-03 17:27:00,
2013-01-03 12:33:00,38.5,35.0,30.10,WNW,293,1.0,1.0,87,0.00,,,0.00,Wunderground v.1.15,2013-01-03 17:33:00,
2013-01-03 12:38:00,38.8,35.3,30.10,WNW,293,0.0,1.0,87,0.00,,,0.00,Wunderground v.1.15,2013-01-03 17:38:00,
2013-01-03 12:44:00,38.9,35.4,30.10,WSW,240,0.0,2.0,87,0.00,,,0.00,Wunderground v.1.15,2013-01-03 17:44:00,
2013-01-03 12:50:00,38.9,35.1,30.09,WSW,253,1.0,1.0,86,0.00,,,0.00,Wunderground v.1.15,2013-01-03 17:50:00,
2013-01-03 12:55:00,39.2,35.7,30.09,WSW,253,0.0,1.0,87,0.00,,,0.00,Wunderground v.1.15,2013-01-03 17:55:00,
2013-01-03 13:00:00,39.5,35.7,30.09,WSW,253,0.0,0.0,86,0.00,,,0.00,Wunderground v.1.15,2013-01-03 18:00:00,
2013-01-03 13:05:00,39.7,35.6,30.08,West,276,0.0,2.0,85,0.00,,,0.00,Wunderground v.1.15,2013-01-03 18:05:00,
2013-01-03 13:11:00,40.1,36.0,30.08,West,271,0.0,0.0,85,0.00,,,0.00,Wunderground v.1.15,2013-01-03 18:11:00,
2013-01-03 13:17:00,40.2,35.8,30.08,West,271,1.0,2.0,84,0.00,,,0.00,Wunderground v.1.15,2013-01-03 18:17:00,
2013-01-03 13:22:00,40.5,36.0,30.08,West,271,1.0,1.0,84,0.00,,,0.00,Wunderground v.1.15,2013-01-03 18:22:00,
2013-01-03 13:28:00,40.6,36.1,30.08,West,271,1.0,2.0,84,0.00,,,0.00,Wunderground v.1.15,2013-01-03 18:28:00,
2013-01-03 13:34:00,40.5,35.7,30.07,West,271,1.0,1.0,83,0.00,,,0.00,Wunderground v.1.15,2013-01-03 18:34:00,
2013-01-03 13:39:00,40.5,35.7,30.07,SSW,213,1.0,1.0,83,0.00,,,0.00,Wunderground v.1.15,2013-01-03 18:39:00,
2013-01-03 13:45:00,40.7,35.6,30.07,NNE,31,1.0,3.0,82,0.00,,,0.00,Wunderground v.1.15,2013-01-03 18:45:00,
2013-01-03 13:50:00,40.7,35.9,30.07,NNE,13,1.0,1.0,83,0.00,,,0.00,Wunderground v.1.15,2013-01-03 18:50:00,
2013-01-03 13:55:00,40.9,36.1,30.07,WNW,287,1.0,1.0,83,0.00,,,0.00,Wunderground v.1.15,2013-01-03 18:55:00,
2013-01-03 14:01:00,40.8,36.0,30.07,NNE,25,1.0,2.0,83,0.00,,,0.00,Wunderground v.1.15,2013-01-03 19:01:00,
2013-01-03 14:06:00,40.8,36.0,30.08,North,360,1.0,2.0,83,0.00,,,0.00,Wunderground v.1.15,2013-01-03 19:06:00,
2013-01-03 14:12:00,40.6,35.5,30.08,WNW,282,1.0,2.0,82,0.00,,,0.00,Wunderground v.1.15,2013-01-03 19:12:00,
2013-01-03 14:17:00,40.6,36.1,30.08,WNW,284,1.0,3.0,84,0.00,,,0.00,Wunderground v.1.15,2013-01-03 19:17:00,
2013-01-03 14:56:00,39.6,35.2,30.09,NNE,30,0.0,3.0,84,0.00,,,0.00,Wunderground v.1.15,2013-01-03 19:56:00,
2013-01-03 15:02:00,39.7,35.3,30.09,NNE,30,1.0,3.0,84,0.00,,,0.00,Wunderground v.1.15,2013-01-03 20:02:00,
2013-01-03 15:07:00,39.7,35.0,30.09,NNE,20,1.0,3.0,83,0.00,,,0.00,Wunderground v.1.15,2013-01-03 20:07:00,
2013-01-03 15:13:00,39.7,34.7,30.09,NNE,12,2.0,3.0,82,0.00,,,0.00,Wunderground v.1.15,2013-01-03 20:13:00,
2013-01-03 15:19:00,39.6,34.6,30.10,NNW,328,1.0,3.0,82,0.00,,,0.00,Wunderground v.1.15,2013-01-03 20:19:00,
2013-01-03 15:24:00,39.5,33.8,30.10,NW,313,1.0,4.0,80,0.00,,,0.00,Wunderground v.1.15,2013-01-03 20:24:00,
2013-01-03 15:30:00,39.5,33.8,30.10,NW,313,1.0,1.0,80,0.00,,,0.00,Wunderground v.1.15,2013-01-03 20:30:00,
2013-01-03 15:35:00,39.5,33.8,30.11,WNW,302,1.0,3.0,80,0.00,,,0.00,Wunderground v.1.15,2013-01-03 20:35:00,
2013-01-03 15:40:00,39.5,33.5,30.11,West,265,1.0,1.0,79,0.00,,,0.00,Wunderground v.1.15,2013-01-03 20:40:00,
2013-01-03 15:46:00,39.5,33.8,30.11,West,265,0.0,1.0,80,0.00,,,0.00,Wunderground v.1.15,2013-01-03 20:46:00,
2013-01-03 15:51:00,39.6,34.2,30.12,West,265,0.0,0.0,81,0.00,,,0.00,Wunderground v.1.15,2013-01-03 20:51:00,
2013-01-03 15:57:00,39.6,33.6,30.12,West,267,0.0,2.0,79,0.00,,,0.00,Wunderground v.1.15,2013-01-03 20:57:00,
2013-01-03 16:03:00,39.5,32.9,30.12,NNE,26,1.0,2.0,77,0.00,,,0.00,Wunderground v.1.15,2013-01-03 21:03:00,
2013-01-03 16:08:00,39.4,33.4,30.12,NE,46,1.0,3.0,79,0.00,,,0.00,Wunderground v.1.15,2013-01-03 21:08:00,
2013-01-03 16:14:00,39.3,33.3,30.12,NE,46,1.0,1.0,79,0.00,,,0.00,Wunderground v.1.15,2013-01-03 21:14:00,
2013-01-03 16:19:00,39.3,32.7,30.13,NNE,20,0.0,1.0,77,0.00,,,0.00,Wunderground v.1.15,2013-01-03 21:19:00,
2013-01-03 16:25:00,39.2,32.9,30.13,NNE,20,1.0,1.0,78,0.00,,,0.00,Wunderground v.1.15,2013-01-03 21:25:00,
2013-01-03 16:31:00,38.9,32.0,30.13,NNW,344,1.0,2.0,76,0.00,,,0.00,Wunderground v.1.15,2013-01-03 21:31:00,
2013-01-03 16:37:00,38.6,31.4,30.14,NE,44,1.0,2.0,75,0.00,,,0.00,Wunderground v.1.15,2013-01-03 21:37:00,
2013-01-03 16:42:00,38.4,31.5,30.14,NE,44,1.0,1.0,76,0.00,,,0.00,Wunderground v.1.15,2013-01-03 21:42:00,
2013-01-03 16:47:00,38.3,32.0,30.14,NE,44,0.0,1.0,78,0.00,,,0.00,Wunderground v.1.15,2013-01-03 21:47:00,
2013-01-03 16:53:00,38.0,31.7,30.14,NNE,19,1.0,4.0,78,0.00,,,0.00,Wunderground v.1.15,2013-01-03 21:53:00,
2013-01-03 16:59:00,37.7,30.8,30.14,North,355,2.0,4.0,76,0.00,,,0.00,Wunderground v.1.15,2013-01-03 21:59:00,
2013-01-03 17:05:00,37.4,30.8,30.15,NNE,32,1.0,2.0,77,0.00,,,0.00,Wunderground v.1.15,2013-01-03 22:05:00,
2013-01-03 17:11:00,37.0,30.5,30.15,NNE,24,1.0,1.0,77,0.00,,,0.00,Wunderground v.1.15,2013-01-03 22:11:00,
2013-01-03 17:17:00,36.5,30.6,30.15,North,355,0.0,4.0,79,0.00,,,0.00,Wunderground v.1.15,2013-01-03 22:17:00,
2013-01-03 17:22:00,36.2,30.6,30.15,NNE,24,0.0,1.0,80,0.00,,,0.00,Wunderground v.1.15,2013-01-03 22:22:00,
2013-01-03 17:27:00,35.8,29.9,30.15,East,84,1.0,3.0,79,0.00,,,0.00,Wunderground v.1.15,2013-01-03 22:27:00,
2013-01-03 17:33:00,35.5,29.9,30.16,North,349,1.0,1.0,80,0.00,,,0.00,Wunderground v.1.15,2013-01-03 22:33:00,
2013-01-03 17:39:00,35.1,29.6,30.16,NE,48,1.0,4.0,80,0.00,,,0.00,Wunderground v.1.15,2013-01-03 22:39:00,
2013-01-03 17:44:00,35.0,29.5,30.16,NNW,338,1.0,3.0,80,0.00,,,0.00,Wunderground v.1.15,2013-01-03 22:44:00,
2013-01-03 17:49:00,34.9,29.4,30.17,WNW,302,1.0,3.0,80,0.00,,,0.00,Wunderground v.1.15,2013-01-03 22:49:00,
2013-01-03 17:54:00,34.9,29.4,30.17,NW,311,1.0,1.0,80,0.00,,,0.00,Wunderground v.1.15,2013-01-03 22:54:00,
2013-01-03 18:00:00,34.6,29.4,30.17,NW,311,0.0,0.0,81,0.00,,,0.00,Wunderground v.1.15,2013-01-03 23:00:00,
2013-01-03 18:05:00,34.4,29.2,30.18,WNW,301,0.0,1.0,81,0.00,,,0.00,Wunderground v.1.15,2013-01-03 23:05:00,
2013-01-03 18:10:00,34.1,28.9,30.18,NW,315,0.0,1.0,81,0.00,,,0.00,Wunderground v.1.15,2013-01-03 23:10:00,
2013-01-03 18:16:00,33.9,29.0,30.18,NNE,14,0.0,1.0,82,0.00,,,0.00,Wunderground v.1.15,2013-01-03 23:16:00,
2013-01-03 18:21:00,33.7,28.8,30.20,WNW,284,1.0,1.0,82,0.00,,,0.00,Wunderground v.1.15,2013-01-03 23:21:00,
2013-01-03 18:27:00,33.5,28.6,30.20,NNW,331,0.0,1.0,82,0.00,,,0.00,Wunderground v.1.15,2013-01-03 23:27:00,
2013-01-03 18:32:00,33.4,28.2,30.20,NW,313,0.0,2.0,81,0.00,,,0.00,Wunderground v.1.15,2013-01-03 23:32:00,
2013-01-03 18:37:00,33.4,28.5,30.20,NNE,33,0.0,2.0,82,0.00,,,0.00,Wunderground v.1.15,2013-01-03 23:37:00,
2013-01-03 18:43:00,33.4,28.5,30.20,NNE,20,1.0,3.0,82,0.00,,,0.00,Wunderground v.1.15,2013-01-03 23:43:00,
2013-01-03 18:49:00,33.3,28.1,30.21,NNE,15,2.0,4.0,81,0.00,,,0.00,Wunderground v.1.15,2013-01-03 23:49:00,
2013-01-03 18:54:00,33.3,28.4,30.21,ENE,69,2.0,2.0,82,0.00,,,0.00,Wunderground v.1.15,2013-01-03 23:54:00,
2013-01-03 19:00:00,33.3,28.1,30.21,NW,313,1.0,1.0,81,0.00,,,0.00,Wunderground v.1.15,2013-01-04 00:00:00,
2013-01-03 19:05:00,33.2,28.0,30.21,NW,311,1.0,2.0,81,0.00,,,0.00,Wunderground v.1.15,2013-01-04 00:05:00,
2013-01-03 19:11:00,33.2,28.0,30.21,North,9,2.0,2.0,81,0.00,,,0.00,Wunderground v.1.15,2013-01-04 00:11:00,
2013-01-03 19:17:00,33.1,27.9,30.22,WNW,286,2.0,2.0,81,0.00,,,0.00,Wunderground v.1.15,2013-01-04 00:17:00,
2013-01-03 19:23:00,33.0,27.8,30.22,NNE,22,1.0,2.0,81,0.00,,,0.00,Wunderground v.1.15,2013-01-04 00:23:00,
2013-01-03 19:29:00,32.9,28.0,30.22,NNE,24,2.0,2.0,82,0.00,,,0.00,Wunderground v.1.15,2013-01-04 00:29:00,
2013-01-03 19:35:00,32.8,27.6,30.22,North,355,1.0,3.0,81,0.00,,,0.00,Wunderground v.1.15,2013-01-04 00:35:00,
2013-01-03 19:41:00,32.6,27.4,30.22,NE,34,1.0,4.0,81,0.00,,,0.00,Wunderground v.1.15,2013-01-04 00:41:00,
2013-01-03 19:47:00,32.6,27.4,30.22,NNW,338,1.0,4.0,81,0.00,,,0.00,Wunderground v.1.15,2013-01-04 00:47:00,
2013-01-03 19:52:00,32.5,27.3,30.22,NNW,339,1.0,2.0,81,0.00,,,0.00,Wunderground v.1.15,2013-01-04 00:52:00,
2013-01-03 19:58:00,32.4,27.2,30.22,NE,53,1.0,2.0,81,0.00,,,0.00,Wunderground v.1.15,2013-01-04 00:58:00,
2013-01-03 20:04:00,32.4,27.5,30.23,NE,47,0.0,2.0,82,0.00,,,0.00,Wunderground v.1.15,2013-01-04 01:04:00,
2013-01-03 20:09:00,32.2,27.3,30.23,NE,47,0.0,2.0,82,0.00,,,0.00,Wunderground v.1.15,2013-01-04 01:09:00,
2013-01-03 20:14:00,31.9,27.0,30.23,NE,47,0.0,0.0,82,0.00,,,0.00,Wunderground v.1.15,2013-01-04 01:14:00,
2013-01-03 20:20:00,31.6,27.0,30.24,NNW,333,0.0,0.0,83,0.00,,,0.00,Wunderground v.1.15,2013-01-04 01:20:00,
2013-01-03 20:26:00,31.6,27.0,30.24,NNE,30,0.0,1.0,83,0.00,,,0.00,Wunderground v.1.15,2013-01-04 01:26:00,
2013-01-03 20:32:00,31.5,27.5,30.24,NNE,30,0.0,0.0,85,0.00,,,0.00,Wunderground v.1.15,2013-01-04 01:32:00,
2013-01-03 20:37:00,31.2,26.9,30.24,WNW,282,0.0,1.0,84,0.00,,,0.00,Wunderground v.1.15,2013-01-04 01:37:00,
2013-01-03 20:42:00,31.0,27.0,30.24,WNW,282,0.0,0.0,85,0.00,,,0.00,Wunderground v.1.15,2013-01-04 01:42:00,
2013-01-03 20:49:00,30.5,26.8,30.24,West,281,0.0,0.0,86,0.00,,,0.00,Wunderground v.1.15,2013-01-04 01:49:00,
2013-01-03 20:54:00,30.1,26.4,30.24,West,281,0.0,0.0,86,0.00,,,0.00,Wunderground v.1.15,2013-01-04 01:54:00,
2013-01-03 20:59:00,29.8,26.4,30.24,West,281,0.0,0.0,87,0.00,,,0.00,Wunderground v.1.15,2013-01-04 01:59:00,
2013-01-03 21:05:00,29.6,26.2,30.25,West,281,0.0,0.0,87,0.00,,,0.00,Wunderground v.1.15,2013-01-04 02:05:00,
2013-01-03 21:10:00,29.4,26.3,30.25,WNW,282,0.0,0.0,88,0.00,,,0.00,Wunderground v.1.15,2013-01-04 02:10:00,
2013-01-03 21:16:00,29.3,26.2,30.25,WNW,282,0.0,0.0,88,0.00,,,0.00,Wunderground v.1.15,2013-01-04 02:16:00,
2013-01-03 21:22:00,29.2,26.4,30.25,WNW,282,0.0,0.0,89,0.00,,,0.00,Wunderground v.1.15,2013-01-04 02:22:00,
2013-01-03 21:27:00,29.0,26.2,30.25,WNW,282,0.0,0.0,89,0.00,,,0.00,Wunderground v.1.15,2013-01-04 02:27:00,
2013-01-03 21:32:00,28.9,26.1,30.26,WNW,282,0.0,0.0,89,0.00,,,0.00,Wunderground v.1.15,2013-01-04 02:32:00,
2013-01-03 21:38:00,28.8,26.0,30.26,WNW,282,0.0,0.0,89,0.00,,,0.00,Wunderground v.1.15,2013-01-04 02:38:00,
2013-01-03 21:44:00,28.8,26.2,30.26,WNW,282,0.0,0.0,90,0.00,,,0.00,Wunderground v.1.15,2013-01-04 02:44:00,
2013-01-03 21:49:00,28.8,26.0,30.26,WNW,282,0.0,0.0,89,0.00,,,0.00,Wunderground v.1.15,2013-01-04 02:49:00,
2013-01-03 21:55:00,28.8,26.2,30.26,West,281,0.0,0.0,90,0.00,,,0.00,Wunderground v.1.15,2013-01-04 02:55:00,
2013-01-03 22:01:00,28.7,25.9,30.26,WNW,282,0.0,0.0,89,0.00,,,0.00,Wunderground v.1.15,2013-01-04 03:01:00,
2013-01-03 22:07:00,28.7,25.9,30.26,WNW,282,0.0,0.0,89,0.00,,,0.00,Wunderground v.1.15,2013-01-04 03:07:00,
2013-01-03 22:12:00,28.6,26.0,30.26,West,281,0.0,0.0,90,0.00,,,0.00,Wunderground v.1.15,2013-01-04 03:12:00,
2013-01-03 22:18:00,28.4,25.8,30.25,WNW,282,0.0,0.0,90,0.00,,,0.00,Wunderground v.1.15,2013-01-04 03:18:00,
2013-01-03 22:24:00,28.3,25.7,30.25,WNW,282,0.0,0.0,90,0.00,,,0.00,Wunderground v.1.15,2013-01-04 03:24:00,
2013-01-03 22:30:00,28.2,25.6,30.25,WNW,282,0.0,0.0,90,0.00,,,0.00,Wunderground v.1.15,2013-01-04 03:30:00,
2013-01-03 22:35:00,28.1,25.5,30.26,WNW,282,0.0,0.0,90,0.00,,,0.00,Wunderground v.1.15,2013-01-04 03:35:00,
2013-01-03 22:41:00,28.1,25.5,30.26,West,281,0.0,0.0,90,0.00,,,0.00,Wunderground v.1.15,2013-01-04 03:41:00,
2013-01-03 22:47:00,28.4,26.1,30.26,West,281,0.0,0.0,91,0.00,,,0.00,Wunderground v.1.15,2013-01-04 03:47:00,
2013-01-03 22:52:00,28.6,26.3,30.26,West,281,0.0,0.0,91,0.00,,,0.00,Wunderground v.1.15,2013-01-04 03:52:00,
2013-01-03 22:57:00,28.7,26.4,30.26,West,281,0.0,0.0,91,0.00,,,0.00,Wunderground v.1.15,2013-01-04 03:57:00,
2013-01-03 23:03:00,28.4,26.1,30.25,West,281,0.0,0.0,91,0.00,,,0.00,Wunderground v.1.15,2013-01-04 04:03:00,
2013-01-03 23:08:00,28.1,25.8,30.25,West,281,0.0,0.0,91,0.00,,,0.00,Wunderground v.1.15,2013-01-04 04:08:00,
2013-01-03 23:14:00,27.8,25.5,30.25,West,280,0.0,0.0,91,0.00,,,0.00,Wunderground v.1.15,2013-01-04 04:14:00,
2013-01-03 23:19:00,27.6,25.3,30.25,West,280,0.0,0.0,91,0.00,,,0.00,Wunderground v.1.15,2013-01-04 04:19:00,
2013-01-03 23:25:00,27.4,25.4,30.25,West,281,0.0,0.0,92,0.00,,,0.00,Wunderground v.1.15,2013-01-04 04:25:00,
2013-01-03 23:30:00,27.5,25.5,30.25,West,281,0.0,0.0,92,0.00,,,0.00,Wunderground v.1.15,2013-01-04 04:30:00,
2013-01-03 23:35:00,27.5,25.5,30.25,West,280,0.0,0.0,92,0.00,,,0.00,Wunderground v.1.15,2013-01-04 04:35:00,
2013-01-03 23:40:00,27.5,25.5,30.25,West,281,0.0,0.0,92,0.00,,,0.00,Wunderground v.1.15,2013-01-04 04:40:00,
2013-01-03 23:45:00,27.5,25.5,30.25,West,280,0.0,0.0,92,0.00,,,0.00,Wunderground v.1.15,2013-01-04 04:45:00,
2013-01-03 23:51:00,27.5,25.5,30.25,West,280,0.0,0.0,92,0.00,,,0.00,Wunderground v.1.15,2013-01-04 04:51:00,
2013-01-03 23:57:00,27.5,25.5,30.25,West,281,0.0,0.0,92,0.00,,,0.00,Wunderground v.1.15,2013-01-04 04:57:00,